Time;durP1;ratioP1;P1;durP2;ratioP2;P2;SDS_P1;SDS_P2;PMS_P1;PMS_P2;Temp;Humidity;BMP_temperature;BMP_pressure;BME280_temperature;BME280_humidity;BME280_pressure;Samples;Min_cycle;Max_cycle;Signal;HPM_P1;HPM_P2
2023/07/12 00:00:54;;;;;;;4.23;2.57;;;;;;;25.35;60.91;97193.47;5012891;28;20555;-73
2023/07/12 00:03:20;;;;;;;5.27;2.30;;;;;;;25.40;61.00;97185.47;5017223;28;20477;-74
2023/07/12 00:05:46;;;;;;;4.50;2.60;;;;;;;25.50;60.44;97189.41;5010658;28;20955;-71
2023/07/12 00:08:28;;;;;;;3.27;2.97;;;;;;;25.53;60.22;97178.97;5011075;28;20200;-71
2023/07/12 00:10:55;;;;;;;7.03;2.47;;;;;;;25.55;60.08;97165.31;5011330;28;20442;-72
2023/07/12 00:13:23;;;;;;;6.33;2.70;;;;;;;25.61;59.58;97158.97;5011241;28;20426;-73
2023/07/12 00:15:48;;;;;;;4.60;2.47;;;;;;;25.40;60.04;97163.22;5010883;28;20431;-74
2023/07/12 00:18:16;;;;;;;5.87;2.17;;;;;;;25.38;60.42;97157.28;5011307;28;20466;-72
2023/07/12 00:20:42;;;;;;;5.03;2.20;;;;;;;25.06;60.25;97163.31;5011026;28;20560;-72
2023/07/12 00:23:14;;;;;;;4.47;2.47;;;;;;;25.13;60.26;97150.56;5009823;28;20423;-71
2023/07/12 00:25:40;;;;;;;3.80;2.20;;;;;;;25.35;59.75;97139.00;5010689;28;20195;-73
2023/07/12 00:28:13;;;;;;;3.03;2.40;;;;;;;25.34;59.55;97142.75;5017480;28;20474;-70
2023/07/12 00:30:38;;;;;;;3.90;2.10;;;;;;;25.35;59.46;97134.47;5011947;28;20176;-72
2023/07/12 00:33:04;;;;;;;2.70;2.47;;;;;;;25.45;59.39;97133.84;5010907;28;21017;-72
2023/07/12 00:35:31;;;;;;;4.83;2.67;;;;;;;25.43;59.18;97119.84;5009681;28;20678;-71
2023/07/12 00:37:59;;;;;;;5.80;2.37;;;;;;;25.37;59.92;97118.94;5010240;28;20212;-71
2023/07/12 00:40:36;;;;;;;3.63;2.30;;;;;;;25.40;59.86;97112.28;5014138;28;20480;-71
2023/07/12 00:43:23;;;;;;;2.80;2.27;;;;;;;25.37;59.64;97123.50;5014488;28;20889;-70
2023/07/12 00:45:51;;;;;;;2.60;2.27;;;;;;;25.45;59.38;97123.91;5008440;28;20416;-71
2023/07/12 00:48:16;;;;;;;2.13;1.97;;;;;;;25.53;58.94;97119.97;5013769;28;20470;-71
2023/07/12 00:50:42;;;;;;;4.60;1.80;;;;;;;25.65;58.79;97119.00;5010526;28;20434;-71
2023/07/12 00:53:13;;;;;;;2.87;2.37;;;;;;;25.68;58.29;97121.19;5010093;28;20933;-71
2023/07/12 00:56:04;;;;;;;3.20;1.97;;;;;;;25.72;58.37;97127.66;5009781;28;20195;-72
2023/07/12 00:58:33;;;;;;;2.10;1.90;;;;;;;25.77;58.63;97122.38;5013324;28;20562;-71
2023/07/12 01:01:00;;;;;;;3.30;2.23;;;;;;;25.83;58.25;97113.31;5010227;28;20514;-73
2023/07/12 01:03:27;;;;;;;3.50;2.50;;;;;;;25.84;57.84;97117.59;5008831;28;20420;-73
2023/07/12 01:05:52;;;;;;;4.73;2.47;;;;;;;25.81;58.02;97110.06;5009002;28;20519;-72
2023/07/12 01:08:20;;;;;;;2.47;2.20;;;;;;;25.72;57.99;97100.84;5016724;28;20447;-72
2023/07/12 01:10:45;;;;;;;3.13;2.20;;;;;;;25.51;59.31;97099.81;5021844;28;20219;-72
2023/07/12 01:13:10;;;;;;;6.93;2.27;;;;;;;25.48;58.87;97095.75;5009706;28;20808;-72
2023/07/12 01:15:36;;;;;;;3.47;2.00;;;;;;;25.56;58.61;97060.44;5010325;28;20188;-72
2023/07/12 01:18:03;;;;;;;10.03;1.90;;;;;;;25.42;59.17;97035.88;5008588;28;20590;-73
2023/07/12 01:20:37;;;;;;;5.87;2.07;;;;;;;25.39;58.82;97016.78;5016691;28;20180;-72
2023/07/12 01:23:02;;;;;;;5.77;2.50;;;;;;;25.52;59.17;97004.88;5009728;28;20913;-72
2023/07/12 01:25:41;;;;;;;2.20;1.90;;;;;;;25.59;59.16;96995.53;5011331;28;20465;-72
2023/07/12 01:28:07;;;;;;;4.37;2.23;;;;;;;25.65;59.18;97003.66;5009532;28;20212;-72
2023/07/12 01:30:33;;;;;;;4.07;2.10;;;;;;;25.75;58.93;97042.13;5011047;28;20428;-71
2023/07/12 01:32:58;;;;;;;2.90;2.10;;;;;;;25.72;58.49;97064.09;5009990;28;20902;-72
2023/07/12 01:35:24;;;;;;;3.50;2.40;;;;;;;25.80;58.31;97076.25;5010194;28;20427;-72
2023/07/12 01:37:49;;;;;;;5.93;2.43;;;;;;;25.87;58.25;97079.53;5008727;28;20216;-72
2023/07/12 01:40:15;;;;;;;5.27;2.30;;;;;;;25.84;58.03;97066.59;5010940;28;20191;-73
2023/07/12 01:42:40;;;;;;;6.63;3.50;;;;;;;25.82;58.99;97025.00;5013741;28;20180;-72
2023/07/12 01:45:06;;;;;;;6.10;2.03;;;;;;;25.83;58.70;97014.00;5019980;28;20188;-72
2023/07/12 01:47:32;;;;;;;4.10;2.50;;;;;;;25.76;58.71;96997.31;5021013;28;20206;-73
2023/07/12 01:49:57;;;;;;;8.53;2.67;;;;;;;25.67;59.10;96958.59;5012281;28;20325;-73
2023/07/12 01:52:23;;;;;;;2.77;2.10;;;;;;;25.34;59.94;96933.59;5009049;28;20267;-71
2023/07/12 01:54:49;;;;;;;3.73;2.67;;;;;;;24.76;61.39;96923.38;5009610;28;20195;-72
2023/07/12 01:57:15;;;;;;;5.90;2.50;;;;;;;24.61;62.42;96932.81;5015739;28;20183;-72
2023/07/12 01:59:41;;;;;;;10.13;2.37;;;;;;;24.72;61.58;96946.34;5014083;28;20242;-72
2023/07/12 02:02:06;;;;;;;3.00;2.07;;;;;;;24.93;61.27;96953.56;5010089;28;20215;-73
2023/07/12 02:04:32;;;;;;;7.57;2.40;;;;;;;25.02;61.01;96945.88;5010960;28;20459;-73
2023/07/12 02:06:57;;;;;;;4.20;2.63;;;;;;;25.08;60.81;96941.38;5005819;28;20203;-73
2023/07/12 02:09:23;;;;;;;4.57;2.67;;;;;;;25.13;60.28;96949.47;5015337;28;20200;-72
2023/07/12 02:11:48;;;;;;;7.00;2.70;;;;;;;25.21;59.85;96957.06;5005363;28;20223;-73
2023/07/12 02:14:14;;;;;;;4.70;2.80;;;;;;;25.33;60.50;96964.97;5006854;28;20192;-72
2023/07/12 02:16:39;;;;;;;4.43;2.60;;;;;;;25.45;60.34;96970.22;5008032;28;20276;-72
2023/07/12 02:19:05;;;;;;;6.67;3.33;;;;;;;25.53;60.16;96969.75;5012382;28;20220;-73
2023/07/12 02:21:30;;;;;;;3.47;2.80;;;;;;;25.62;59.72;96967.41;5009060;28;20267;-73
2023/07/12 02:23:55;;;;;;;4.23;2.93;;;;;;;25.65;59.59;96952.66;5010372;28;20574;-72
2023/07/12 02:26:22;;;;;;;6.17;3.00;;;;;;;25.70;59.34;96968.81;5011809;28;20202;-73
2023/07/12 02:28:48;;;;;;;3.67;2.90;;;;;;;25.73;59.85;96969.13;5013593;28;20215;-73
2023/07/12 02:31:14;;;;;;;6.50;3.20;;;;;;;25.75;59.87;96969.66;5007961;28;20479;-73
2023/07/12 02:33:40;;;;;;;5.90;2.83;;;;;;;25.77;59.45;96970.19;5009057;28;20180;-72
2023/07/12 02:36:05;;;;;;;7.00;3.03;;;;;;;25.78;59.04;96979.06;5015496;28;20454;-73
2023/07/12 02:38:31;;;;;;;7.10;2.93;;;;;;;25.79;59.65;96971.81;5007752;28;20216;-72
2023/07/12 02:40:56;;;;;;;9.03;3.00;;;;;;;25.81;59.27;96975.88;5009303;28;20261;-73
2023/07/12 02:43:22;;;;;;;4.07;3.17;;;;;;;25.83;59.38;96972.94;5013796;28;20701;-74
2023/07/12 02:45:47;;;;;;;5.60;2.90;;;;;;;25.85;59.41;96968.91;5008961;28;20781;-72
2023/07/12 02:48:13;;;;;;;6.23;3.40;;;;;;;25.90;59.60;96968.16;5013934;28;20197;-72
2023/07/12 02:50:38;;;;;;;5.70;3.53;;;;;;;25.96;59.22;96979.75;5009194;28;20307;-73
2023/07/12 02:53:14;;;;;;;4.23;3.13;;;;;;;25.97;59.01;96981.34;5007868;28;20219;-72
2023/07/12 02:55:39;;;;;;;4.30;2.90;;;;;;;25.99;58.92;96972.00;5009159;28;20187;-72
2023/07/12 02:58:05;;;;;;;5.53;3.03;;;;;;;25.98;58.61;96966.88;5009049;28;20467;-71
2023/07/12 03:00:30;;;;;;;7.20;3.23;;;;;;;25.97;59.03;96963.38;5013961;28;20182;-71
2023/07/12 03:02:55;;;;;;;7.03;2.93;;;;;;;25.93;58.71;96973.00;5012568;28;20238;-72
2023/07/12 03:05:22;;;;;;;6.70;3.03;;;;;;;25.88;58.35;96971.09;5008736;28;20231;-72
2023/07/12 03:07:47;;;;;;;3.80;2.50;;;;;;;25.80;57.96;96974.25;5010707;28;20711;-70
2023/07/12 03:10:13;;;;;;;4.57;3.57;;;;;;;25.82;58.67;96974.00;5020349;28;20428;-72
2023/07/12 03:12:38;;;;;;;10.50;3.20;;;;;;;25.79;58.43;96980.69;5009769;28;20180;-71
2023/07/12 03:15:04;;;;;;;6.00;2.57;;;;;;;25.75;58.32;96993.00;5012680;28;20218;-70
2023/07/12 03:17:30;;;;;;;4.03;2.87;;;;;;;25.75;58.05;96984.94;5001018;28;20212;-71
2023/07/12 03:19:55;;;;;;;6.93;3.33;;;;;;;25.76;58.29;96984.72;5012512;28;20211;-71
2023/07/12 03:22:20;;;;;;;4.10;3.10;;;;;;;25.79;58.40;96991.44;5010978;28;20184;-71
2023/07/12 03:24:46;;;;;;;4.43;2.90;;;;;;;25.72;58.28;96993.50;5012038;28;20196;-71
2023/07/12 03:27:11;;;;;;;7.47;2.83;;;;;;;25.71;58.45;96981.16;5009882;28;20262;-69
2023/07/12 03:29:37;;;;;;;11.80;3.27;;;;;;;25.72;58.28;96983.59;5011822;28;20248;-73
2023/07/12 03:32:05;;;;;;;5.13;3.03;;;;;;;25.74;58.70;96980.66;5003600;28;20193;-72
2023/07/12 03:34:31;;;;;;;2.60;2.40;;;;;;;25.67;58.20;96991.59;5011253;28;20208;-72
2023/07/12 03:36:57;;;;;;;4.23;2.63;;;;;;;25.69;58.34;96992.16;5011495;28;20517;-72
2023/07/12 03:39:22;;;;;;;7.00;2.73;;;;;;;25.72;58.45;96993.50;5008202;28;20458;-73
2023/07/12 03:41:48;;;;;;;6.27;2.77;;;;;;;25.71;58.05;96998.06;5008223;28;20188;-72
2023/07/12 03:44:13;;;;;;;4.20;2.43;;;;;;;25.68;57.94;97008.50;5010842;28;20654;-72
2023/07/12 03:46:39;;;;;;;4.20;2.97;;;;;;;25.70;57.60;97017.13;5021757;28;20204;-74
2023/07/12 03:49:04;;;;;;;3.67;3.10;;;;;;;25.72;58.03;97023.00;5012846;28;20208;-71
2023/07/12 03:51:29;;;;;;;5.10;2.90;;;;;;;25.74;57.98;97037.00;5010471;28;20556;-71
2023/07/12 03:53:55;;;;;;;6.67;3.17;;;;;;;25.73;57.53;97040.75;5011168;28;20223;-75
2023/07/12 03:56:21;;;;;;;6.43;2.83;;;;;;;25.75;56.99;97025.19;5010837;28;20180;-72
2023/07/12 03:58:46;;;;;;;8.47;3.63;;;;;;;25.80;56.99;97016.38;5017932;28;20222;-71
2023/07/12 04:01:15;;;;;;;8.10;3.20;;;;;;;25.64;56.26;97007.38;5010750;28;20188;-71
2023/07/12 04:03:40;;;;;;;4.30;2.60;;;;;;;25.60;57.44;97010.56;5012242;28;20506;-69
2023/07/12 04:06:07;;;;;;;7.90;2.90;;;;;;;25.63;57.61;97013.81;5011215;28;20217;-70
2023/07/12 04:08:33;;;;;;;7.33;3.10;;;;;;;25.59;57.65;97011.63;5002895;28;20632;-72
2023/07/12 04:11:00;;;;;;;6.77;3.27;;;;;;;25.63;57.39;97027.22;5011106;28;20514;-72
2023/07/12 04:13:26;;;;;;;9.33;3.47;;;;;;;25.60;57.13;97037.41;5008842;28;20176;-73
2023/07/12 04:15:56;;;;;;;9.23;3.53;;;;;;;25.55;56.91;97045.41;5011472;28;20427;-72
2023/07/12 04:18:23;;;;;;;8.10;2.80;;;;;;;25.58;57.14;97057.50;5009599;28;20467;-72
2023/07/12 04:20:48;;;;;;;6.80;3.20;;;;;;;25.60;56.94;97072.28;5012185;28;20518;-71
2023/07/12 04:23:14;;;;;;;12.20;9.20;;;;;;;25.67;57.04;97066.72;5011423;28;20840;-72
2023/07/12 04:25:39;;;;;;;15.27;9.00;;;;;;;25.71;56.34;97067.00;5010149;28;20545;-71
2023/07/12 04:28:04;;;;;;;14.17;6.20;;;;;;;25.71;56.78;97070.53;5010526;28;20200;-73
2023/07/12 04:30:30;;;;;;;7.77;3.57;;;;;;;25.74;56.35;97061.13;5011703;28;20668;-71
2023/07/12 04:32:56;;;;;;;7.20;3.77;;;;;;;25.77;56.43;97053.38;5010374;28;20540;-71
2023/07/12 04:35:21;;;;;;;7.03;3.63;;;;;;;25.79;55.61;97057.69;5008243;28;20179;-72
2023/07/12 04:37:48;;;;;;;9.23;3.07;;;;;;;25.77;55.61;97060.63;5011879;28;20243;-72
2023/07/12 04:40:14;;;;;;;5.23;2.80;;;;;;;25.72;55.38;97057.91;5011038;28;20271;-70
2023/07/12 04:42:40;;;;;;;13.20;4.37;;;;;;;25.76;55.81;97065.22;5010104;28;20439;-71
2023/07/12 04:45:08;;;;;;;5.93;3.90;;;;;;;25.84;55.87;97060.44;5009550;28;20443;-74
2023/07/12 04:47:34;;;;;;;7.73;4.20;;;;;;;25.82;55.95;97058.00;5015151;28;20481;-72
2023/07/12 04:50:00;;;;;;;7.47;3.57;;;;;;;25.80;56.12;97057.47;5009970;28;20456;-73
2023/07/12 04:52:25;;;;;;;4.53;2.90;;;;;;;25.74;56.21;97058.47;5010960;28;20181;-71
2023/07/12 04:54:56;;;;;;;9.90;3.37;;;;;;;25.75;56.55;97052.84;5011229;28;20301;-72
2023/07/12 04:57:21;;;;;;;13.27;3.83;;;;;;;25.81;56.35;97058.25;5003968;28;20188;-74
2023/07/12 04:59:46;;;;;;;11.53;3.37;;;;;;;25.79;56.57;97060.38;5002191;28;20440;-71
2023/07/12 05:02:12;;;;;;;10.30;4.60;;;;;;;25.80;56.37;97053.94;5001317;28;20259;-72
2023/07/12 05:04:37;;;;;;;27.90;22.30;;;;;;;25.74;56.83;97051.25;5010545;28;20191;-72
2023/07/12 05:07:03;;;;;;;16.07;10.20;;;;;;;25.77;56.77;97055.28;5011489;28;20279;-72
2023/07/12 05:09:28;;;;;;;13.13;6.33;;;;;;;25.79;56.95;97058.50;5005074;28;20545;-72
2023/07/12 05:11:54;;;;;;;11.07;5.60;;;;;;;25.73;56.87;97062.19;5012733;28;20291;-71
2023/07/12 05:14:19;;;;;;;9.63;5.40;;;;;;;25.77;56.64;97071.38;5018740;28;20215;-71
2023/07/12 05:16:45;;;;;;;10.50;5.27;;;;;;;25.85;56.41;97078.16;5008723;28;20294;-72
2023/07/12 05:19:11;;;;;;;8.80;5.53;;;;;;;25.86;56.94;97079.78;5014466;28;20224;-71
2023/07/12 05:21:36;;;;;;;7.10;4.27;;;;;;;25.88;56.65;97086.50;5016103;28;20183;-72
2023/07/12 05:24:02;;;;;;;9.80;4.60;;;;;;;25.84;57.04;97079.22;5010098;28;20191;-72
2023/07/12 05:26:27;;;;;;;8.70;4.13;;;;;;;25.91;56.84;97082.50;5013543;28;20287;-71
2023/07/12 05:28:53;;;;;;;20.17;4.83;;;;;;;25.96;56.97;97081.75;5009681;28;20206;-73
2023/07/12 05:31:18;;;;;;;7.80;4.30;;;;;;;26.04;56.71;97082.06;5010746;28;20242;-72
2023/07/12 05:33:45;;;;;;;6.70;3.87;;;;;;;26.06;56.70;97082.63;5009197;28;20231;-73
2023/07/12 05:36:11;;;;;;;7.90;3.73;;;;;;;26.02;57.01;97089.56;5015694;28;20187;-71
2023/07/12 05:38:37;;;;;;;6.13;3.60;;;;;;;26.02;57.37;97103.00;5011750;28;20845;-72
2023/07/12 05:41:02;;;;;;;8.53;4.13;;;;;;;26.08;57.22;97101.19;5013972;28;20177;-73
2023/07/12 05:43:28;;;;;;;10.03;4.30;;;;;;;26.03;57.40;97093.88;5010521;28;20197;-72
2023/07/12 05:45:56;;;;;;;6.83;3.70;;;;;;;26.12;56.88;97096.94;5011531;28;20192;-72
2023/07/12 05:48:22;;;;;;;9.53;3.90;;;;;;;26.15;56.98;97087.59;5009675;28;20204;-70
2023/07/12 05:50:51;;;;;;;9.33;4.00;;;;;;;26.20;56.69;97088.44;5007187;28;20462;-71
2023/07/12 05:53:17;;;;;;;8.20;3.90;;;;;;;26.26;56.59;97089.28;5005425;28;20423;-72
2023/07/12 05:55:43;;;;;;;16.03;10.40;;;;;;;26.32;56.30;97080.19;5015673;28;20434;-72
2023/07/12 05:58:08;;;;;;;10.20;7.53;;;;;;;26.34;56.37;97074.53;5007437;28;20902;-71
2023/07/12 06:00:33;;;;;;;5.50;4.07;;;;;;;26.40;56.80;97081.59;5008483;28;20620;-72
2023/07/12 06:02:59;;;;;;;9.53;4.93;;;;;;;26.45;56.79;97073.56;5016598;28;20196;-73
2023/07/12 06:05:24;;;;;;;11.10;5.07;;;;;;;26.53;56.56;97083.00;5008201;28;20266;-72
2023/07/12 06:07:50;;;;;;;12.80;4.53;;;;;;;26.53;56.69;97073.09;5014534;28;20214;-71
2023/07/12 06:10:16;;;;;;;7.33;4.20;;;;;;;26.56;56.84;97081.69;5002534;28;20238;-72
2023/07/12 06:12:42;;;;;;;7.77;4.80;;;;;;;26.61;56.76;97085.22;5008741;28;20419;-72
2023/07/12 06:15:08;;;;;;;6.50;4.23;;;;;;;26.63;56.60;97090.34;5011069;28;20191;-72
2023/07/12 06:17:33;;;;;;;7.60;4.30;;;;;;;26.64;56.52;97095.47;5026115;28;20208;-71
2023/07/12 06:19:59;;;;;;;6.50;4.20;;;;;;;26.64;56.30;97094.63;5011259;28;20430;-71
2023/07/12 06:22:24;;;;;;;5.70;3.80;;;;;;;26.67;56.48;97103.00;5006015;28;20275;-71
2023/07/12 06:24:49;;;;;;;7.77;4.10;;;;;;;26.68;56.58;97101.91;5009037;28;20180;-70
2023/07/12 06:27:15;;;;;;;11.07;4.37;;;;;;;26.73;56.45;97103.81;5007891;28;20306;-73
2023/07/12 06:29:41;;;;;;;15.57;5.20;;;;;;;26.72;56.73;97107.59;5017668;28;20208;-71
2023/07/12 06:32:09;;;;;;;9.00;4.30;;;;;;;26.81;56.57;97105.25;5009130;28;20192;-71
2023/07/12 06:34:35;;;;;;;8.10;4.50;;;;;;;26.92;55.88;97098.06;5013549;28;20427;-71
2023/07/12 06:37:00;;;;;;;8.67;4.77;;;;;;;27.06;55.51;97101.91;5014924;28;20517;-71
2023/07/12 06:39:26;;;;;;;6.87;4.00;;;;;;;27.17;55.25;97099.25;5014801;28;20237;-72
2023/07/12 06:41:51;;;;;;;9.20;4.47;;;;;;;27.38;54.93;97092.88;5008033;28;20196;-71
2023/07/12 06:44:17;;;;;;;9.60;4.40;;;;;;;27.52;54.47;97100.47;5015461;28;20670;-71
2023/07/12 06:46:42;;;;;;;9.73;4.80;;;;;;;27.66;53.67;97103.50;5009161;28;20188;-71
2023/07/12 06:49:10;;;;;;;9.43;4.00;;;;;;;27.78;53.93;97111.31;5009075;28;20257;-73
2023/07/12 06:51:36;;;;;;;7.33;5.87;;;;;;;27.92;53.67;97116.97;5009951;28;20191;-73
2023/07/12 06:54:01;;;;;;;12.10;4.80;;;;;;;28.07;53.00;97118.91;5016370;28;20438;-72
2023/07/12 06:56:26;;;;;;;14.50;9.87;;;;;;;28.25;52.89;97122.97;5009974;28;20267;-72
2023/07/12 06:58:52;;;;;;;10.20;5.10;;;;;;;28.34;52.06;97124.88;5009904;28;20307;-71
2023/07/12 07:01:17;;;;;;;6.40;5.20;;;;;;;28.51;52.05;97129.16;5014728;28;20267;-71
2023/07/12 07:03:43;;;;;;;11.23;4.70;;;;;;;28.59;51.37;97127.81;5011406;28;20267;-70
2023/07/12 07:06:08;;;;;;;7.93;4.43;;;;;;;28.67;51.02;97133.47;5018648;28;20253;-70
2023/07/12 07:08:34;;;;;;;8.30;4.50;;;;;;;28.70;50.89;97136.69;5010476;28;20288;-71
2023/07/12 07:11:00;;;;;;;8.43;4.40;;;;;;;28.70;50.37;97136.69;5011896;28;20188;-72
2023/07/12 07:13:26;;;;;;;5.13;4.00;;;;;;;28.70;50.03;97142.09;5011995;28;20214;-71
2023/07/12 07:15:51;;;;;;;12.50;3.90;;;;;;;28.56;49.58;97150.72;5000203;28;20428;-70
2023/07/12 07:18:17;;;;;;;8.53;3.80;;;;;;;28.59;49.86;97147.50;5008166;28;20204;-71
2023/07/12 07:20:43;;;;;;;8.53;3.40;;;;;;;28.67;49.99;97146.13;4990659;28;20679;-73
2023/07/12 07:23:09;;;;;;;7.07;4.17;;;;;;;28.70;49.98;97150.19;4990954;28;20184;-71
2023/07/12 07:25:35;;;;;;;5.50;3.80;;;;;;;28.73;49.85;97158.56;5005627;28;20467;-73
2023/07/12 07:28:01;;;;;;;9.40;3.87;;;;;;;28.83;49.49;97155.06;4961528;28;20517;-71
2023/07/12 07:30:26;;;;;;;4.50;3.37;;;;;;;28.96;49.14;97146.41;5013975;28;20780;-72
2023/07/12 07:32:54;;;;;;;5.73;3.30;;;;;;;29.02;48.78;97159.84;5012119;28;20183;-71
2023/07/12 07:35:20;;;;;;;6.60;3.77;;;;;;;28.78;47.45;97157.75;5020040;28;20184;-74
2023/07/12 07:37:47;;;;;;;6.83;3.80;;;;;;;28.86;47.75;97159.88;5016435;28;20479;-71
2023/07/12 07:40:13;;;;;;;6.03;3.60;;;;;;;28.92;47.62;97166.09;5010665;28;20184;-75
2023/07/12 07:42:38;;;;;;;5.20;3.40;;;;;;;29.04;47.23;97163.09;5012692;28;20942;-73
2023/07/12 07:45:04;;;;;;;4.50;3.67;;;;;;;28.98;46.89;97153.41;5016179;28;20191;-74
2023/07/12 07:47:30;;;;;;;6.20;3.63;;;;;;;28.85;46.93;97160.16;5011264;28;20692;-71
2023/07/12 07:49:55;;;;;;;5.50;3.80;;;;;;;29.02;46.99;97162.53;5021598;28;20263;-71
2023/07/12 07:52:21;;;;;;;10.80;3.83;;;;;;;29.15;47.56;97164.66;5008414;28;20246;-72
2023/07/12 07:54:46;;;;;;;7.53;4.33;;;;;;;29.25;47.52;97159.25;5012836;28;20283;-75
2023/07/12 07:57:11;;;;;;;9.70;3.80;;;;;;;29.46;46.92;97164.63;5024338;28;20243;-71
2023/07/12 07:59:37;;;;;;;5.23;3.53;;;;;;;29.66;46.70;97171.81;5027861;28;20209;-74
2023/07/12 08:02:03;;;;;;;6.00;3.50;;;;;;;29.82;45.50;97167.13;5035357;28;20191;-74
2023/07/12 08:04:30;;;;;;;4.30;3.60;;;;;;;29.72;45.12;97165.28;5029806;28;20188;-73
2023/07/12 08:06:56;;;;;;;7.63;4.13;;;;;;;29.92;45.11;97168.97;5025434;28;20196;-71
2023/07/12 08:09:22;;;;;;;6.73;3.37;;;;;;;30.09;44.46;97165.94;5021289;28;20497;-72
2023/07/12 08:11:47;;;;;;;9.43;3.87;;;;;;;30.17;44.37;97162.63;5022941;28;21174;-72
2023/07/12 08:14:14;;;;;;;6.23;4.03;;;;;;;30.29;44.79;97169.56;5017000;28;20596;-71
2023/07/12 08:16:40;;;;;;;4.83;4.20;;;;;;;30.16;44.10;97176.44;5011027;28;20199;-72
2023/07/12 08:19:05;;;;;;;6.43;3.77;;;;;;;30.27;43.58;97172.56;5015333;28;20466;-71
2023/07/12 08:21:31;;;;;;;9.00;3.63;;;;;;;30.18;43.82;97183.16;5014874;28;20231;-71
2023/07/12 08:23:57;;;;;;;6.97;3.43;;;;;;;30.28;41.49;97184.16;5008698;28;20176;-73
2023/07/12 08:26:22;;;;;;;5.70;3.80;;;;;;;30.52;41.41;97178.03;5011706;28;20203;-73
2023/07/12 08:28:48;;;;;;;8.27;4.13;;;;;;;30.43;43.28;97180.56;5019214;28;20292;-71
2023/07/12 08:31:14;;;;;;;9.50;3.53;;;;;;;30.71;42.64;97181.69;5019423;28;20183;-71
2023/07/12 08:33:43;;;;;;;3.87;2.90;;;;;;;30.92;41.06;97181.50;5016312;28;20607;-71
2023/07/12 08:36:09;;;;;;;4.30;3.10;;;;;;;30.99;41.40;97183.88;5019244;28;21170;-72
2023/07/12 08:38:34;;;;;;;3.90;3.40;;;;;;;31.13;40.97;97186.75;5010291;28;20550;-72
2023/07/12 08:41:00;;;;;;;7.57;3.60;;;;;;;31.32;41.53;97187.59;5014508;28;20184;-71
2023/07/12 08:43:30;;;;;;;6.33;3.70;;;;;;;31.37;41.32;97189.44;5015153;28;20264;-73
2023/07/12 08:46:13;;;;;;;7.27;3.30;;;;;;;31.51;40.69;97190.38;5020624;28;20211;-71
2023/07/12 08:48:39;;;;;;;7.27;3.37;;;;;;;31.62;40.75;97199.19;5001268;28;20518;-74
2023/07/12 08:51:26;;;;;;;5.83;3.37;;;;;;;31.45;39.27;97205.03;5010847;28;20507;-74
2023/07/12 08:53:52;;;;;;;4.60;2.90;;;;;;;31.43;38.75;97201.03;5012524;28;20667;-72
2023/07/12 08:56:19;;;;;;;6.63;3.10;;;;;;;31.34;38.55;97198.97;5012522;28;20473;-72
2023/07/12 08:58:47;;;;;;;5.27;3.00;;;;;;;31.40;38.71;97192.38;5015082;28;20811;-71
2023/07/12 09:01:15;;;;;;;6.10;2.63;;;;;;;31.60;38.96;97195.13;5015333;28;20422;-71
2023/07/12 09:03:41;;;;;;;3.93;2.60;;;;;;;31.63;37.71;97194.56;5020621;28;20423;-72
2023/07/12 09:06:14;;;;;;;8.67;3.00;;;;;;;31.76;37.71;97198.50;5009241;28;20423;-72
2023/07/12 09:08:44;;;;;;;5.70;2.80;;;;;;;32.02;37.15;97199.75;5010579;28;20196;-72
2023/07/12 09:11:15;;;;;;;6.03;2.60;;;;;;;32.09;36.26;97199.38;5017931;28;20424;-72
2023/07/12 09:13:41;;;;;;;3.70;2.73;;;;;;;32.30;36.73;97191.78;5032491;28;20502;-72
2023/07/12 09:16:33;;;;;;;3.83;2.37;;;;;;;32.25;35.44;97210.84;5013703;28;20562;-71
2023/07/12 09:19:19;;;;;;;6.10;2.67;;;;;;;32.26;35.72;97192.66;5012631;28;20235;-71
2023/07/12 09:21:50;;;;;;;7.40;2.87;;;;;;;32.23;35.54;97202.19;5010294;28;20537;-72
2023/07/12 09:24:22;;;;;;;4.83;2.87;;;;;;;32.24;35.34;97197.53;5009000;28;20481;-73
2023/07/12 09:26:49;;;;;;;4.50;2.60;;;;;;;32.32;35.57;97191.50;5009683;28;20449;-72
2023/07/12 09:29:24;;;;;;;4.50;2.50;;;;;;;32.13;35.39;97205.84;5016461;28;20473;-72
2023/07/12 09:31:51;;;;;;;11.37;2.93;;;;;;;32.28;35.65;97188.56;5014339;28;20476;-72
2023/07/12 09:34:24;;;;;;;4.53;2.30;;;;;;;32.42;35.21;97182.38;5009885;28;20435;-71
2023/07/12 09:36:55;;;;;;;5.50;2.63;;;;;;;32.61;34.70;97180.47;5008737;28;20432;-72
2023/07/12 09:39:21;;;;;;;4.43;2.60;;;;;;;32.74;34.10;97180.78;5009916;28;20843;-70
2023/07/12 09:41:50;;;;;;;2.40;2.20;;;;;;;32.96;34.23;97179.34;5015996;28;20427;-71
2023/07/12 09:44:15;;;;;;;4.30;2.10;;;;;;;33.14;34.13;97161.38;5011028;28;20680;-74
2023/07/12 09:46:46;;;;;;;5.20;2.73;;;;;;;33.00;33.89;97166.81;5019931;28;20419;-73
2023/07/12 09:49:19;;;;;;;3.30;2.33;;;;;;;32.85;34.03;97171.41;5011628;28;20200;-73
2023/07/12 09:51:47;;;;;;;4.63;2.87;;;;;;;33.11;34.05;97154.66;5010123;28;20478;-71
2023/07/12 09:54:34;;;;;;;3.33;2.60;;;;;;;33.12;33.67;97163.56;5010277;28;20759;-72
2023/07/12 09:57:10;;;;;;;4.83;2.00;;;;;;;33.44;32.80;97170.84;5018016;28;20855;-73
2023/07/12 09:59:50;;;;;;;4.70;2.73;;;;;;;33.42;32.24;97164.13;5015217;28;20484;-73
2023/07/12 10:02:25;;;;;;;3.47;2.73;;;;;;;33.54;32.87;97167.13;5009431;28;20421;-72
2023/07/12 10:04:56;;;;;;;5.73;3.00;;;;;;;33.57;32.73;97165.69;5019635;28;20835;-73
2023/07/12 10:07:34;;;;;;;4.40;2.80;;;;;;;33.68;31.98;97161.66;5014974;28;20418;-72
2023/07/12 10:09:59;;;;;;;3.80;2.97;;;;;;;33.79;31.67;97167.69;5010428;28;20513;-71
2023/07/12 10:12:32;;;;;;;6.80;3.87;;;;;;;33.64;31.96;97166.91;5007392;28;20518;-73
2023/07/12 10:14:58;;;;;;;4.83;2.80;;;;;;;33.59;31.71;97158.84;5013011;28;20184;-72
2023/07/12 10:17:34;;;;;;;3.23;2.90;;;;;;;33.68;32.18;97164.38;5005180;28;20435;-74
2023/07/12 10:20:00;;;;;;;3.00;2.63;;;;;;;33.41;31.51;97157.06;5007962;28;20422;-74
2023/07/12 10:22:33;;;;;;;7.37;2.80;;;;;;;33.46;31.71;97162.41;5008690;28;20935;-73
2023/07/12 10:25:00;;;;;;;6.20;2.53;;;;;;;33.65;32.23;97157.66;5006589;28;20480;-72
2023/07/12 10:27:29;;;;;;;5.67;3.00;;;;;;;33.83;31.69;97155.91;5010522;28;20462;-72
2023/07/12 10:30:00;;;;;;;6.20;2.27;;;;;;;34.03;31.63;97156.56;5018954;28;20436;-72
2023/07/12 10:32:29;;;;;;;3.00;2.70;;;;;;;34.26;31.68;97148.44;5011312;28;20420;-72
2023/07/12 10:35:22;;;;;;;4.53;3.03;;;;;;;34.43;30.96;97166.81;5005186;28;20503;-72
2023/07/12 10:37:59;;;;;;;4.90;2.70;;;;;;;34.17;30.71;97153.81;5012746;28;20467;-73
2023/07/12 10:40:29;;;;;;;5.03;2.70;;;;;;;34.11;30.35;97158.56;5015275;28;20932;-72
2023/07/12 10:42:57;;;;;;;4.37;2.73;;;;;;;34.02;30.46;97159.59;5013785;28;20420;-72
2023/07/12 10:45:26;;;;;;;7.57;3.40;;;;;;;33.75;30.56;97166.69;5013006;28;20428;-73
2023/07/12 10:47:53;;;;;;;6.80;2.97;;;;;;;33.78;30.68;97166.88;5015690;28;20431;-73
2023/07/12 10:50:29;;;;;;;4.33;3.07;;;;;;;33.94;30.18;97166.56;5016293;28;20475;-71
2023/07/12 10:53:12;;;;;;;3.57;3.27;;;;;;;33.94;30.24;97164.66;5008233;28;20427;-73
2023/07/12 10:55:47;;;;;;;3.70;2.90;;;;;;;34.12;29.66;97162.91;5008822;28;20434;-71
2023/07/12 10:58:26;;;;;;;6.43;3.37;;;;;;;34.21;29.86;97152.09;5011587;28;20473;-72
2023/07/12 11:00:55;;;;;;;3.10;2.80;;;;;;;34.39;29.50;97147.59;5014208;28;20430;-72
2023/07/12 11:03:33;;;;;;;5.20;3.30;;;;;;;34.44;30.06;97144.75;5012599;28;20423;-72
2023/07/12 11:06:04;;;;;;;9.37;2.90;;;;;;;34.35;29.80;97152.03;5010384;28;20509;-72
2023/07/12 11:08:32;;;;;;;7.47;3.20;;;;;;;34.45;30.04;97140.91;5000438;28;20518;-73
2023/07/12 11:11:25;;;;;;;9.80;3.37;;;;;;;34.53;29.30;97142.09;5012736;28;20468;-73
2023/07/12 11:14:09;;;;;;;4.07;3.40;;;;;;;34.68;29.17;97140.88;5015141;28;20889;-72
2023/07/12 11:16:43;;;;;;;7.60;3.37;;;;;;;34.74;29.05;97131.47;5003516;28;20430;-72
2023/07/12 11:19:48;;;;;;;4.60;2.93;;;;;;;34.99;28.99;97131.13;5009572;28;20545;-72
2023/07/12 11:22:54;;;;;;;8.77;3.30;;;;;;;34.87;28.87;97127.06;5007161;28;20427;-73
2023/07/12 11:25:30;;;;;;;4.80;2.97;;;;;;;35.20;28.50;97120.47;5007035;28;20768;-72
2023/07/12 11:28:04;;;;;;;4.43;3.20;;;;;;;35.27;28.57;97117.28;5013968;28;20518;-72
2023/07/12 11:30:36;;;;;;;5.30;3.10;;;;;;;35.01;27.72;97129.72;5021495;28;20434;-71
2023/07/12 11:33:07;;;;;;;9.33;3.53;;;;;;;35.29;27.81;97132.19;5014917;28;20427;-70
2023/07/12 11:35:43;;;;;;;4.50;3.30;;;;;;;35.50;27.05;97126.19;5014498;28;20427;-71